createdAt,value
2019-05-21T00:01:28.460Z,99.90
2019-05-21T00:03:58.314Z,99.90
2019-05-21T00:06:28.188Z,99.90
2019-05-21T00:08:58.105Z,99.90
2019-05-21T00:11:27.955Z,99.90
2019-05-21T00:13:57.869Z,99.90
2019-05-21T00:16:27.641Z,99.90
2019-05-21T00:18:57.555Z,99.90
2019-05-21T00:21:27.413Z,99.90
2019-05-21T00:23:57.260Z,99.90
2019-05-21T00:26:27.215Z,99.90
2019-05-21T00:29:33.030Z,99.90
2019-05-21T00:32:39.011Z,99.90
2019-05-21T00:35:48.167Z,99.90
2019-05-21T00:38:53.948Z,99.90
2019-05-21T00:41:59.680Z,99.90
2019-05-21T00:44:30.618Z,99.90
2019-05-21T00:47:19.446Z,99.90
2019-05-21T00:49:49.368Z,99.90
2019-05-21T00:52:19.225Z,99.90
2019-05-21T00:54:49.076Z,99.90
2019-05-21T00:57:19.015Z,99.90
2019-05-21T00:59:49.174Z,99.90
2019-05-21T01:02:19.033Z,99.90
2019-05-21T01:05:00.351Z,99.90
2019-05-21T01:07:20.517Z,99.90
2019-05-21T01:09:50.369Z,99.90
2019-05-21T01:12:20.219Z,99.90
2019-05-21T01:14:50.057Z,99.90
2019-05-21T01:17:19.971Z,99.90
2019-05-21T01:19:49.824Z,99.90
2019-05-21T01:22:19.677Z,99.90
2019-05-21T01:24:49.508Z,99.90
2019-05-21T01:27:19.420Z,99.90
2019-05-21T01:29:49.308Z,99.90
2019-05-21T01:32:19.535Z,99.90
2019-05-21T01:34:49.368Z,99.90
2019-05-21T01:37:19.284Z,99.90
2019-05-21T01:39:49.149Z,99.90
2019-05-21T01:42:18.991Z,99.90
2019-05-21T01:44:48.848Z,99.90
2019-05-21T01:47:18.863Z,99.90
2019-05-21T01:49:48.840Z,99.90
2019-05-21T01:52:19.229Z,99.90
2019-05-21T01:54:49.097Z,99.90
2019-05-21T01:57:19.117Z,99.90
2019-05-21T01:59:48.976Z,99.90
2019-05-21T02:02:18.944Z,99.90
2019-05-21T02:04:48.808Z,99.90
2019-05-21T02:07:18.677Z,99.90
2019-05-21T02:10:00.817Z,99.90
2019-05-21T02:12:30.664Z,99.90
2019-05-21T02:15:00.545Z,99.90
2019-05-21T02:17:30.415Z,99.90
2019-05-21T02:20:00.272Z,99.90
2019-05-21T02:22:30.102Z,99.90
2019-05-21T02:25:00.114Z,99.90
2019-05-21T02:27:29.995Z,99.90
2019-05-21T02:29:59.868Z,99.90
2019-05-21T02:32:29.743Z,99.90
2019-05-21T02:34:59.593Z,99.90
2019-05-21T02:37:29.538Z,99.90
2019-05-21T02:39:59.389Z,99.90
2019-05-21T02:42:29.543Z,99.90
2019-05-21T02:44:59.400Z,99.90
2019-05-21T02:47:29.287Z,99.90
2019-05-21T02:49:59.362Z,99.90
2019-05-21T02:52:29.354Z,99.90
2019-05-21T02:54:59.237Z,99.90
2019-05-21T02:57:39.731Z,99.90
2019-05-21T03:00:39.241Z,99.90
2019-05-21T03:03:10.619Z,99.90
2019-05-21T03:05:40.476Z,99.90
2019-05-21T03:08:10.500Z,99.90
2019-05-21T03:10:40.346Z,99.90
2019-05-21T03:13:10.205Z,99.90
2019-05-21T03:15:40.073Z,99.90
2019-05-21T03:18:09.948Z,99.90
2019-05-21T03:20:39.801Z,99.90
2019-05-21T03:23:09.632Z,99.90
2019-05-21T03:25:39.493Z,99.90
2019-05-21T03:28:10.243Z,99.90
2019-05-21T03:30:40.114Z,99.90
2019-05-21T03:33:09.946Z,99.90
2019-05-21T03:35:39.811Z,99.90
2019-05-21T03:38:09.677Z,99.90
2019-05-21T03:40:39.530Z,99.90
2019-05-21T03:43:09.384Z,99.90
2019-05-21T03:45:39.277Z,99.90
2019-05-21T03:48:10.248Z,99.90
2019-05-21T03:50:41.115Z,99.90
2019-05-21T03:53:10.988Z,99.90
2019-05-21T03:55:40.822Z,99.90
2019-05-21T03:58:10.833Z,99.90
2019-05-21T04:00:40.735Z,99.90
2019-05-21T04:03:10.748Z,99.90
2019-05-21T04:05:40.601Z,99.90
2019-05-21T04:08:10.615Z,99.90
2019-05-21T04:10:40.453Z,99.90
2019-05-21T04:13:10.294Z,99.90
2019-05-21T04:15:57.099Z,99.90
2019-05-21T04:18:40.990Z,99.90
2019-05-21T04:21:10.914Z,99.90
2019-05-21T04:23:42.039Z,99.90
2019-05-21T04:26:11.931Z,99.90
2019-05-21T04:28:41.871Z,99.90
2019-05-21T04:31:11.720Z,99.90
2019-05-21T04:33:41.589Z,99.90
2019-05-21T04:36:12.061Z,99.90
2019-05-21T04:38:42.034Z,99.90
2019-05-21T04:41:11.893Z,99.90
2019-05-21T04:43:41.805Z,99.90
2019-05-21T04:46:11.661Z,99.90
2019-05-21T04:48:41.591Z,99.90
2019-05-21T04:51:13.864Z,99.90
2019-05-21T04:53:43.104Z,99.90
2019-05-21T04:56:12.958Z,99.90
2019-05-21T04:58:42.893Z,99.90
2019-05-21T05:01:12.752Z,99.90
2019-05-21T05:03:42.623Z,99.90
2019-05-21T05:06:12.489Z,99.90
2019-05-21T05:08:42.507Z,99.90
2019-05-21T05:11:12.585Z,99.90
2019-05-21T05:13:42.637Z,99.90
2019-05-21T05:16:12.641Z,99.90
2019-05-21T05:18:42.687Z,99.90
2019-05-21T05:21:12.578Z,99.90
2019-05-21T05:23:42.500Z,99.90
2019-05-21T05:26:12.487Z,99.90
2019-05-21T05:28:42.523Z,99.90
2019-05-21T05:31:15.214Z,99.90
2019-05-21T05:33:43.968Z,99.90
2019-05-21T05:36:15.510Z,99.90
2019-05-21T05:38:45.703Z,99.90
2019-05-21T05:41:15.731Z,99.90
2019-05-21T05:43:45.605Z,99.90
2019-05-21T05:46:15.595Z,99.90
2019-05-21T05:48:51.752Z,99.90
2019-05-21T05:51:21.743Z,99.90
2019-05-21T05:53:59.334Z,99.90
2019-05-21T05:56:30.575Z,99.90
2019-05-21T05:59:00.776Z,99.90
2019-05-21T06:01:32.636Z,99.90
2019-05-21T06:04:02.749Z,99.90
2019-05-21T06:06:32.867Z,99.90
2019-05-21T06:09:03.276Z,99.90
2019-05-21T06:11:33.306Z,99.90
2019-05-21T06:14:03.209Z,99.90
2019-05-21T06:16:33.112Z,99.90
2019-05-21T06:19:03.061Z,99.90
2019-05-21T06:21:33.072Z,99.90
2019-05-21T06:24:03.088Z,99.90
2019-05-21T06:26:33.092Z,99.90
2019-05-21T06:29:03.005Z,99.90
2019-05-21T06:31:33.107Z,99.90
2019-05-21T06:34:03.081Z,99.90
2019-05-21T06:36:32.965Z,99.90
2019-05-21T06:39:04.666Z,99.90
2019-05-21T06:41:34.615Z,99.90
2019-05-21T06:44:04.940Z,99.90
2019-05-21T06:46:34.848Z,99.90
2019-05-21T06:49:05.164Z,99.90
2019-05-21T06:51:35.288Z,99.90
2019-05-21T06:54:05.353Z,99.90
2019-05-21T06:56:35.390Z,99.90
2019-05-21T06:59:06.019Z,99.90
2019-05-21T07:01:35.984Z,99.90
2019-05-21T07:04:06.041Z,99.90
2019-05-21T07:06:35.904Z,99.90
2019-05-21T07:09:06.967Z,99.90
2019-05-21T07:11:36.804Z,99.90
2019-05-21T07:14:06.856Z,99.90
2019-05-21T07:16:36.712Z,99.90
2019-05-21T07:19:06.610Z,99.90
2019-05-21T07:21:36.460Z,99.90
2019-05-21T07:24:07.208Z,99.90
2019-05-21T07:26:37.098Z,99.90
2019-05-21T07:29:06.987Z,99.90
2019-05-21T07:31:36.815Z,99.90
2019-05-21T07:34:06.747Z,99.90
2019-05-21T07:36:36.621Z,99.90
2019-05-21T07:39:07.740Z,99.90
2019-05-21T07:41:37.601Z,99.90
2019-05-21T07:44:07.430Z,99.90
2019-05-21T07:46:39.723Z,99.90
2019-05-21T07:49:08.855Z,99.90
2019-05-21T07:51:41.088Z,99.90
2019-05-21T07:54:10.963Z,99.90
2019-05-21T07:56:40.811Z,99.90
2019-05-21T07:59:10.772Z,99.90
2019-05-21T08:01:40.710Z,99.90
2019-05-21T08:04:10.559Z,99.90
2019-05-21T08:06:40.393Z,99.90
2019-05-21T08:09:14.202Z,99.90
2019-05-21T08:11:41.836Z,99.90
2019-05-21T08:14:11.771Z,99.90
2019-05-21T08:16:41.687Z,99.90
2019-05-21T08:19:13.022Z,99.90
2019-05-21T08:21:43.104Z,99.90
2019-05-21T08:24:13.112Z,99.90
2019-05-21T08:26:43.066Z,99.90
2019-05-21T08:29:14.025Z,99.90
2019-05-21T08:31:43.860Z,99.90
2019-05-21T08:34:13.694Z,99.90
2019-05-21T08:36:43.544Z,99.90
2019-05-21T08:39:27.655Z,99.90
2019-05-21T08:41:44.974Z,99.90
2019-05-21T08:44:14.954Z,99.90
2019-05-21T08:46:44.909Z,99.90
2019-05-21T08:49:14.880Z,99.90
2019-05-21T08:51:45.780Z,99.90
2019-05-21T08:54:17.646Z,99.90
2019-05-21T08:56:47.513Z,99.90
2019-05-21T08:59:36.394Z,99.90
2019-05-21T09:02:06.742Z,99.90
2019-05-21T09:04:46.025Z,99.90
2019-05-21T09:07:08.355Z,99.90
2019-05-21T09:09:49.841Z,99.90
2019-05-21T09:12:10.452Z,99.90
2019-05-21T09:14:40.410Z,99.90
2019-05-21T09:17:10.485Z,99.90
2019-05-21T09:19:41.735Z,99.90
2019-05-21T09:22:11.666Z,99.90
2019-05-21T09:24:41.668Z,99.90
2019-05-21T09:27:11.656Z,99.90
2019-05-21T09:29:41.516Z,99.90
2019-05-21T09:32:11.699Z,99.90
2019-05-21T09:34:48.841Z,99.90
2019-05-21T09:37:19.546Z,99.90
2019-05-21T09:39:45.606Z,99.90
2019-05-21T09:42:15.468Z,99.90
2019-05-21T09:44:45.448Z,99.90
2019-05-21T09:47:15.400Z,99.90
2019-05-21T09:49:45.236Z,99.90
2019-05-21T09:52:15.091Z,99.90
2019-05-21T09:54:44.943Z,99.90
2019-05-21T09:57:18.132Z,99.90
2019-05-21T09:59:59.745Z,99.90
2019-05-21T10:02:31.228Z,99.90
2019-05-21T10:05:01.109Z,99.90
2019-05-21T10:07:39.969Z,99.90
2019-05-21T10:10:02.650Z,99.90
2019-05-21T10:12:32.613Z,99.90
2019-05-21T10:15:02.635Z,99.90
2019-05-21T10:17:33.511Z,99.90
2019-05-21T10:20:03.361Z,99.90
2019-05-21T10:22:33.216Z,99.90
2019-05-21T10:25:03.191Z,99.90
2019-05-21T10:27:33.064Z,99.90
2019-05-21T10:30:03.780Z,99.90
2019-05-21T10:32:33.632Z,99.90
2019-05-21T10:35:04.454Z,99.90
2019-05-21T10:37:34.774Z,99.90
2019-05-21T10:40:05.147Z,99.90
2019-05-21T10:42:35.153Z,99.90
2019-05-21T10:45:05.600Z,99.90
2019-05-21T10:47:36.504Z,99.90
2019-05-21T10:50:07.768Z,99.90
2019-05-21T10:52:37.624Z,99.90
2019-05-21T10:55:09.421Z,99.90
2019-05-21T10:57:39.307Z,99.90
2019-05-21T11:00:14.563Z,99.90
2019-05-21T11:02:50.506Z,99.90
2019-05-21T11:05:28.991Z,99.90
2019-05-21T11:08:22.271Z,99.90
2019-05-21T11:10:30.330Z,99.90
2019-05-21T11:13:00.179Z,99.90
2019-05-21T11:15:30.282Z,99.90
2019-05-21T11:18:10.759Z,99.90
2019-05-21T11:20:31.770Z,99.90
2019-05-21T11:23:01.602Z,99.90
2019-05-21T11:25:31.498Z,99.90
2019-05-21T11:28:02.694Z,99.90
2019-05-21T11:30:32.963Z,99.90
2019-05-21T11:33:02.773Z,99.90
2019-05-21T11:35:35.799Z,99.90
2019-05-21T11:38:04.617Z,99.90
2019-05-21T11:40:34.583Z,99.90
2019-05-21T11:43:04.910Z,99.90
2019-05-21T11:45:34.924Z,99.90
2019-05-21T11:48:06.092Z,99.90
2019-05-21T11:50:36.196Z,99.90
2019-05-21T11:53:06.294Z,99.90
2019-05-21T11:55:36.508Z,99.90
2019-05-21T11:58:06.501Z,99.90
2019-05-21T12:00:36.641Z,99.90
2019-05-21T12:03:07.041Z,99.90
2019-05-21T12:05:37.382Z,99.90
2019-05-21T12:08:07.335Z,99.90
2019-05-21T12:10:37.375Z,99.90
2019-05-21T12:13:07.268Z,99.90
2019-05-21T12:15:37.248Z,99.90
2019-05-21T12:18:07.243Z,99.90
2019-05-21T12:20:37.652Z,99.90
2019-05-21T12:23:08.015Z,99.90
2019-05-21T12:25:38.568Z,99.90
2019-05-21T12:28:11.099Z,99.90
2019-05-21T12:30:39.996Z,99.90
2019-05-21T12:33:09.843Z,99.90
2019-05-21T12:35:39.719Z,99.90
2019-05-21T12:38:09.692Z,99.90
2019-05-21T12:40:39.548Z,98.70
2019-05-21T12:43:09.545Z,99.10
2019-05-21T12:45:39.663Z,99.90
2019-05-21T12:48:09.657Z,99.90
2019-05-21T12:50:40.360Z,99.90
2019-05-21T12:53:10.265Z,99.90
2019-05-21T12:55:42.931Z,99.90
2019-05-21T12:58:13.770Z,94.30
2019-05-21T13:00:43.888Z,91.70
2019-05-21T13:03:13.891Z,91.10
2019-05-21T13:05:44.105Z,93.50
2019-05-21T13:08:14.125Z,96.60
2019-05-21T13:10:44.046Z,90.40
2019-05-21T13:13:13.984Z,94.60
2019-05-21T13:15:44.019Z,93.80
2019-05-21T13:18:14.170Z,96.50
2019-05-21T13:20:44.023Z,96.10
2019-05-21T13:23:13.963Z,98.40
2019-05-21T13:25:43.867Z,99.90
2019-05-21T13:28:14.746Z,98.20
2019-05-21T13:30:44.604Z,96.30
2019-05-21T13:33:14.761Z,98.30
2019-05-21T13:35:44.739Z,93.80
2019-05-21T13:38:14.636Z,94.20
2019-05-21T13:40:45.300Z,92.70
2019-05-21T13:43:15.216Z,92.40
2019-05-21T13:45:45.111Z,90.20
2019-05-21T13:48:15.171Z,99.90
2019-05-21T13:50:45.030Z,96.20
2019-05-21T13:53:15.010Z,96.40
2019-05-21T13:55:45.532Z,99.90
2019-05-21T13:58:15.476Z,93.70
2019-05-21T14:00:48.501Z,91.20
2019-05-21T14:03:19.083Z,92.40
2019-05-21T14:05:49.223Z,94.10
2019-05-21T14:08:19.116Z,92.50
2019-05-21T14:10:49.179Z,90.60
2019-05-21T14:13:19.437Z,99.20
2019-05-21T14:15:49.271Z,92.70
2019-05-21T14:18:19.270Z,89.20
2019-05-21T14:20:49.144Z,97.20
2019-05-21T14:23:19.068Z,94.00
2019-05-21T14:25:48.888Z,94.80
2019-05-21T14:28:18.864Z,93.60
2019-05-21T14:30:48.737Z,87.80
2019-05-21T14:33:18.592Z,91.50
2019-05-21T14:35:48.430Z,91.70
2019-05-21T14:38:18.460Z,87.90
2019-05-21T14:40:48.416Z,90.30
2019-05-21T14:43:18.375Z,86.10
2019-05-21T14:45:48.237Z,83.70
2019-05-21T14:48:18.172Z,85.70
2019-05-21T14:50:48.027Z,94.00
2019-05-21T14:53:17.889Z,92.40
2019-05-21T14:55:47.754Z,91.60
2019-05-21T14:58:17.798Z,83.00
2019-05-21T15:00:47.750Z,92.70
2019-05-21T15:03:25.224Z,85.10
2019-05-21T15:05:49.759Z,94.70
2019-05-21T15:08:19.881Z,93.00
2019-05-21T15:10:49.862Z,92.40
2019-05-21T15:13:20.306Z,94.50
2019-05-21T15:15:50.172Z,91.40
2019-05-21T15:18:24.683Z,94.80
2019-05-21T15:21:11.442Z,95.30
2019-05-21T15:23:42.087Z,98.50
2019-05-21T15:26:12.675Z,99.90
2019-05-21T15:28:42.706Z,97.50
2019-05-21T15:31:12.640Z,99.90
2019-05-21T15:33:42.525Z,99.90
2019-05-21T15:36:12.373Z,99.90
2019-05-21T15:38:49.989Z,99.90
2019-05-21T15:41:13.862Z,99.90
2019-05-21T15:43:43.786Z,99.90
2019-05-21T15:46:13.691Z,99.90
2019-05-21T15:48:43.840Z,99.90
2019-05-21T15:51:13.622Z,99.90
2019-05-21T15:53:44.699Z,99.90
2019-05-21T15:56:14.647Z,99.90
2019-05-21T15:58:45.648Z,99.90
2019-05-21T16:01:15.613Z,99.90
2019-05-21T16:03:46.315Z,99.90
2019-05-21T16:06:16.152Z,99.90
2019-05-21T16:08:46.810Z,99.90
2019-05-21T16:11:27.958Z,99.90
2019-05-21T16:13:48.465Z,99.90
2019-05-21T16:16:18.344Z,99.90
2019-05-21T16:18:48.269Z,99.90
2019-05-21T16:21:18.135Z,99.90
2019-05-21T16:23:47.982Z,99.90
2019-05-21T16:26:17.831Z,99.90
2019-05-21T16:28:47.745Z,99.90
2019-05-21T16:31:17.644Z,99.90
2019-05-21T16:33:47.496Z,99.90
2019-05-21T16:36:17.388Z,99.90
2019-05-21T16:38:47.416Z,99.90
2019-05-21T16:41:17.243Z,99.90
2019-05-21T16:43:47.085Z,99.90
2019-05-21T16:46:17.523Z,99.90
2019-05-21T16:48:47.460Z,99.90
2019-05-21T16:51:17.365Z,99.90
2019-05-21T16:53:47.199Z,99.90
2019-05-21T16:56:17.056Z,99.90
2019-05-21T16:58:48.132Z,99.90
2019-05-21T17:01:18.135Z,99.90
2019-05-21T17:03:59.529Z,99.90
2019-05-21T17:06:20.420Z,99.90
2019-05-21T17:08:50.356Z,99.90
2019-05-21T17:11:20.260Z,99.90
2019-05-21T17:13:50.161Z,99.90
2019-05-21T17:16:20.059Z,99.90
2019-05-21T17:18:51.089Z,99.90
2019-05-21T17:21:21.488Z,99.90
2019-05-21T17:23:51.320Z,99.90
2019-05-21T17:26:21.269Z,99.90
2019-05-21T17:28:51.204Z,99.90
2019-05-21T17:31:21.169Z,99.90
2019-05-21T17:33:51.043Z,99.90
2019-05-21T17:36:20.872Z,99.90
2019-05-21T17:38:50.768Z,99.90
2019-05-21T17:41:20.724Z,99.90
2019-05-21T17:43:50.591Z,99.90
2019-05-21T17:46:20.412Z,99.90
2019-05-21T17:48:50.332Z,99.90
2019-05-21T17:51:20.179Z,99.90
2019-05-21T17:53:50.378Z,99.90
2019-05-21T17:56:20.624Z,99.90
2019-05-21T17:58:50.555Z,99.90
2019-05-21T18:01:21.723Z,99.90
2019-05-21T18:03:52.316Z,99.90
2019-05-21T18:06:22.565Z,99.90
2019-05-21T18:08:52.582Z,99.90
2019-05-21T18:11:23.450Z,99.90
2019-05-21T18:13:53.765Z,99.90
2019-05-21T18:16:24.153Z,99.90
2019-05-21T18:18:54.176Z,99.90
2019-05-21T18:21:25.023Z,99.90
2019-05-21T18:23:55.017Z,99.90
2019-05-21T18:26:25.162Z,99.90
2019-05-21T18:28:55.328Z,99.90
2019-05-21T18:31:25.546Z,99.90
2019-05-21T18:33:55.591Z,99.90
2019-05-21T18:36:25.752Z,99.90
2019-05-21T18:38:56.740Z,99.90
2019-05-21T18:41:26.855Z,99.90
2019-05-21T18:43:57.040Z,99.90
2019-05-21T18:46:27.107Z,99.90
2019-05-21T18:48:57.020Z,99.90
2019-05-21T18:51:26.844Z,99.90
2019-05-21T18:53:56.849Z,99.90
2019-05-21T18:56:26.872Z,99.90
2019-05-21T18:58:57.116Z,99.90
2019-05-21T19:01:27.197Z,99.90
2019-05-21T19:03:57.161Z,99.90
2019-05-21T19:06:27.181Z,99.90
2019-05-21T19:08:57.365Z,99.90
2019-05-21T19:11:27.360Z,99.90
2019-05-21T19:13:57.526Z,99.90
2019-05-21T19:16:30.010Z,99.90
2019-05-21T19:18:59.575Z,99.90
2019-05-21T19:21:29.892Z,99.90
2019-05-21T19:23:59.885Z,99.90
2019-05-21T19:26:29.941Z,99.90
2019-05-21T19:29:00.892Z,99.90
2019-05-21T19:31:31.024Z,99.90
2019-05-21T19:34:01.047Z,99.90
2019-05-21T19:36:30.864Z,99.90
2019-05-21T19:39:01.011Z,99.90
2019-05-21T19:41:30.951Z,99.90
2019-05-21T19:44:00.780Z,99.90
2019-05-21T19:46:30.648Z,99.90
2019-05-21T19:49:00.588Z,99.90
2019-05-21T19:51:30.830Z,99.90
2019-05-21T19:54:00.786Z,99.90
2019-05-21T19:56:30.732Z,99.90
2019-05-21T19:59:00.748Z,99.90
2019-05-21T20:01:30.700Z,99.90
2019-05-21T20:04:01.548Z,99.90
2019-05-21T20:06:32.993Z,99.90
2019-05-21T20:09:04.475Z,99.90
2019-05-21T20:11:34.324Z,99.90
2019-05-21T20:14:04.776Z,99.90
2019-05-21T20:16:35.893Z,99.90
2019-05-21T20:19:06.199Z,99.90
2019-05-21T20:21:36.645Z,99.90
2019-05-21T20:24:08.903Z,99.90
2019-05-21T20:26:39.477Z,99.90
2019-05-21T20:29:09.488Z,99.90
2019-05-21T20:31:39.894Z,99.90
2019-05-21T20:34:11.238Z,99.90
2019-05-21T20:36:41.930Z,99.90
2019-05-21T20:39:15.060Z,99.90
2019-05-21T20:41:45.057Z,99.90
2019-05-21T20:44:16.251Z,99.90
2019-05-21T20:46:46.828Z,99.90
2019-05-21T20:49:16.944Z,99.90
2019-05-21T20:51:47.580Z,99.90
2019-05-21T20:54:19.020Z,99.90
2019-05-21T20:56:48.848Z,99.90
2019-05-21T20:59:18.760Z,99.90
2019-05-21T21:01:49.005Z,99.90
2019-05-21T21:04:19.555Z,99.90
2019-05-21T21:06:52.529Z,99.90
2019-05-21T21:09:22.662Z,99.90
2019-05-21T21:11:52.693Z,99.90
2019-05-21T21:14:24.424Z,99.90
2019-05-21T21:16:55.384Z,99.90
2019-05-21T21:19:25.224Z,99.90
2019-05-21T21:21:55.063Z,99.90
2019-05-21T21:24:25.032Z,99.90
2019-05-21T21:26:55.172Z,99.90
2019-05-21T21:29:25.108Z,99.90
2019-05-21T21:31:54.968Z,99.90
2019-05-21T21:34:24.816Z,99.90
2019-05-21T21:36:54.649Z,99.90
2019-05-21T21:39:24.648Z,99.90
2019-05-21T21:41:54.787Z,99.90
2019-05-21T21:44:33.406Z,99.90
2019-05-21T21:46:56.441Z,99.90
2019-05-21T21:49:27.920Z,99.90
2019-05-21T21:51:59.175Z,99.90
2019-05-21T21:54:48.364Z,99.90
2019-05-21T21:57:18.545Z,99.90
2019-05-21T21:59:48.580Z,99.90
2019-05-21T22:02:32.261Z,99.90
2019-05-21T22:05:03.847Z,99.90
2019-05-21T22:07:33.915Z,99.90
2019-05-21T22:10:04.749Z,99.90
2019-05-21T22:12:34.899Z,99.90
2019-05-21T22:15:06.679Z,99.90
2019-05-21T22:17:36.787Z,99.90
2019-05-21T22:20:08.401Z,99.90
2019-05-21T22:22:38.356Z,99.90
2019-05-21T22:25:08.929Z,99.90
2019-05-21T22:27:39.015Z,99.90
2019-05-21T22:30:09.463Z,99.90
2019-05-21T22:32:39.569Z,99.90
2019-05-21T22:35:09.816Z,99.90
2019-05-21T22:37:39.709Z,99.90
2019-05-21T22:40:09.847Z,99.90
2019-05-21T22:42:58.776Z,99.90
2019-05-21T22:45:31.420Z,99.90
2019-05-21T22:48:01.384Z,99.90
2019-05-21T22:50:32.081Z,99.90
2019-05-21T22:53:01.972Z,99.90
2019-05-21T22:55:31.863Z,99.90
2019-05-21T22:58:01.890Z,99.90
2019-05-21T23:00:33.051Z,99.90
2019-05-21T23:03:03.144Z,99.90
2019-05-21T23:05:33.093Z,99.90
2019-05-21T23:08:04.563Z,99.90
2019-05-21T23:10:34.460Z,99.90
2019-05-21T23:13:04.652Z,99.90
2019-05-21T23:15:34.687Z,99.90
2019-05-21T23:18:05.603Z,99.90
2019-05-21T23:20:36.359Z,99.90
2019-05-21T23:23:06.209Z,99.90
2019-05-21T23:25:36.618Z,99.90
2019-05-21T23:28:06.980Z,99.90
2019-05-21T23:30:37.248Z,99.90
2019-05-21T23:33:08.201Z,99.90
2019-05-21T23:35:39.844Z,99.90
2019-05-21T23:38:09.899Z,99.90
2019-05-21T23:40:41.756Z,99.90
2019-05-21T23:43:11.664Z,99.90
2019-05-21T23:45:41.563Z,99.90
2019-05-21T23:48:15.435Z,99.90
2019-05-21T23:50:51.755Z,99.90
2019-05-21T23:53:21.738Z,99.90
2019-05-21T23:55:51.731Z,99.90
2019-05-21T23:58:22.648Z,99.90
